createdAt,value
2019-03-10T00:00:21.481Z,67.19
2019-03-10T00:01:21.460Z,66.57
2019-03-10T00:02:21.442Z,66.67
2019-03-10T00:03:21.443Z,67.30
2019-03-10T00:04:21.419Z,67.61
2019-03-10T00:05:21.427Z,66.88
2019-03-10T00:06:21.392Z,66.78
2019-03-10T00:07:21.388Z,67.19
2019-03-10T00:08:21.386Z,66.67
2019-03-10T00:09:21.364Z,66.78
2019-03-10T00:10:21.354Z,66.47
2019-03-10T00:11:21.368Z,67.30
2019-03-10T00:12:21.335Z,67.30
2019-03-10T00:13:21.317Z,66.47
2019-03-10T00:14:21.329Z,66.57
2019-03-10T00:15:21.305Z,66.78
2019-03-10T00:16:21.292Z,66.36
2019-03-10T00:17:21.274Z,66.99
2019-03-10T00:18:21.259Z,67.19
2019-03-10T00:19:21.242Z,66.88
2019-03-10T00:20:21.249Z,66.67
2019-03-10T00:21:21.242Z,66.88
2019-03-10T00:22:21.213Z,67.19
2019-03-10T00:23:21.195Z,66.36
2019-03-10T00:24:21.200Z,66.88
2019-03-10T00:25:21.182Z,66.71
2019-03-10T00:26:21.234Z,67.64
2019-03-10T00:27:21.164Z,67.95
2019-03-10T00:28:21.155Z,67.54
2019-03-10T00:29:21.150Z,67.95
2019-03-10T00:30:21.122Z,67.74
2019-03-10T00:31:21.145Z,67.43
2019-03-10T00:32:21.105Z,67.64
2019-03-10T00:33:21.117Z,67.22
2019-03-10T00:34:21.091Z,67.74
2019-03-10T00:35:21.076Z,67.12
2019-03-10T00:36:21.055Z,67.02
2019-03-10T00:37:21.063Z,66.71
2019-03-10T00:38:21.054Z,67.19
2019-03-10T00:39:21.030Z,67.22
2019-03-10T00:40:21.020Z,66.71
2019-03-10T00:41:21.004Z,66.91
2019-03-10T00:42:21.011Z,66.67
2019-03-10T00:43:20.982Z,67.50
2019-03-10T00:44:20.993Z,67.33
2019-03-10T00:45:20.950Z,67.54
2019-03-10T00:46:20.949Z,67.43
2019-03-10T00:47:20.955Z,67.71
2019-03-10T00:48:20.917Z,67.71
2019-03-10T00:49:20.910Z,67.50
2019-03-10T00:50:20.910Z,67.61
2019-03-10T00:51:20.897Z,67.50
2019-03-10T00:52:20.923Z,67.40
2019-03-10T00:53:20.880Z,67.50
2019-03-10T00:54:20.857Z,67.40
2019-03-10T00:55:20.887Z,67.50
2019-03-10T00:56:20.855Z,67.19
2019-03-10T00:57:20.811Z,67.64
2019-03-10T00:58:20.819Z,68.15
2019-03-10T00:59:20.795Z,67.40
2019-03-10T01:00:20.795Z,68.05
2019-03-10T01:01:20.776Z,67.85
2019-03-10T01:02:20.770Z,68.46
2019-03-10T01:03:20.770Z,68.36
2019-03-10T01:04:20.757Z,68.26
2019-03-10T01:05:20.731Z,68.15
2019-03-10T01:06:20.769Z,68.88
2019-03-10T01:07:20.712Z,68.88
2019-03-10T01:08:20.719Z,68.26
2019-03-10T01:09:20.695Z,68.67
2019-03-10T01:10:20.672Z,69.19
2019-03-10T01:11:20.671Z,69.29
2019-03-10T01:12:20.656Z,69.40
2019-03-10T01:13:20.648Z,69.50
2019-03-10T01:14:20.628Z,69.19
2019-03-10T01:15:20.632Z,69.29
2019-03-10T01:16:20.605Z,69.29
2019-03-10T01:17:20.599Z,68.98
2019-03-10T01:18:20.600Z,69.09
2019-03-10T01:19:20.573Z,69.29
2019-03-10T01:20:20.570Z,69.19
2019-03-10T01:21:20.560Z,69.29
2019-03-10T01:22:20.538Z,69.40
2019-03-10T01:23:20.544Z,69.50
2019-03-10T01:24:20.515Z,70.01
2019-03-10T01:25:20.513Z,69.81
2019-03-10T01:26:20.511Z,69.84
2019-03-10T01:27:20.488Z,69.81
2019-03-10T01:28:20.507Z,69.92
2019-03-10T01:29:20.460Z,69.60
2019-03-10T01:30:20.452Z,69.71
2019-03-10T01:31:20.447Z,69.60
2019-03-10T01:32:20.434Z,69.92
2019-03-10T01:33:20.460Z,70.01
2019-03-10T01:34:20.406Z,69.81
2019-03-10T01:35:20.407Z,69.95
2019-03-10T01:36:20.394Z,70.01
2019-03-10T01:37:20.377Z,70.01
2019-03-10T01:38:20.360Z,70.15
2019-03-10T01:39:20.368Z,70.12
2019-03-10T01:40:20.346Z,70.01
2019-03-10T01:41:20.324Z,69.60
2019-03-10T01:42:20.326Z,69.53
2019-03-10T01:43:20.323Z,69.60
2019-03-10T01:44:20.328Z,69.95
2019-03-10T01:45:20.299Z,70.01
2019-03-10T01:46:20.310Z,70.05
2019-03-10T01:47:20.267Z,69.84
2019-03-10T01:48:20.264Z,69.92
2019-03-10T01:49:20.288Z,69.50
2019-03-10T01:50:20.240Z,70.12
2019-03-10T01:51:20.224Z,70.26
2019-03-10T01:52:20.211Z,70.98
2019-03-10T01:53:25.427Z,71.08
2019-03-10T01:54:21.270Z,70.77
2019-03-10T01:55:20.176Z,70.57
2019-03-10T01:56:20.200Z,70.47
2019-03-10T01:57:20.155Z,70.15
2019-03-10T01:58:20.146Z,70.43
2019-03-10T01:59:20.121Z,71.19
2019-03-10T02:00:20.131Z,70.84
2019-03-10T02:01:20.103Z,70.53
2019-03-10T02:02:25.581Z,70.36
2019-03-10T02:03:21.090Z,70.74
2019-03-10T02:04:20.082Z,69.71
2019-03-10T02:05:20.093Z,70.01
2019-03-10T02:06:20.067Z,69.81
2019-03-10T02:07:20.046Z,70.01
2019-03-10T02:08:20.025Z,70.01
2019-03-10T02:09:20.013Z,70.22
2019-03-10T02:10:20.018Z,70.84
2019-03-10T02:11:20.014Z,70.47
2019-03-10T02:12:19.994Z,70.32
2019-03-10T02:13:19.970Z,70.32
2019-03-10T02:14:19.957Z,70.74
2019-03-10T02:15:19.969Z,70.77
2019-03-10T02:16:19.947Z,70.53
2019-03-10T02:17:19.938Z,70.43
2019-03-10T02:18:19.913Z,70.22
2019-03-10T02:19:19.913Z,70.43
2019-03-10T02:20:19.926Z,70.77
2019-03-10T02:21:19.887Z,71.50
2019-03-10T02:22:19.878Z,70.77
2019-03-10T02:23:19.871Z,70.77
2019-03-10T02:24:23.678Z,71.19
2019-03-10T02:25:19.867Z,70.77
2019-03-10T02:26:19.831Z,70.36
2019-03-10T02:27:19.830Z,70.53
2019-03-10T02:28:19.812Z,70.53
2019-03-10T02:29:19.804Z,70.53
2019-03-10T02:30:19.802Z,70.43
2019-03-10T02:31:19.796Z,70.43
2019-03-10T02:32:19.804Z,70.67
2019-03-10T02:33:19.748Z,70.67
2019-03-10T02:34:19.741Z,70.67
2019-03-10T02:35:19.741Z,70.74
2019-03-10T02:36:19.711Z,70.22
2019-03-10T02:37:19.716Z,70.53
2019-03-10T02:38:19.782Z,70.43
2019-03-10T02:39:19.693Z,70.22
2019-03-10T02:40:19.708Z,70.22
2019-03-10T02:41:19.680Z,70.67
2019-03-10T02:42:19.649Z,70.47
2019-03-10T02:43:19.649Z,70.43
2019-03-10T02:44:19.624Z,70.32
2019-03-10T02:45:19.643Z,70.43
2019-03-10T02:46:19.617Z,70.74
2019-03-10T02:47:19.599Z,70.22
2019-03-10T02:48:19.584Z,70.32
2019-03-10T02:49:19.569Z,70.36
2019-03-10T02:50:19.586Z,70.84
2019-03-10T02:51:19.558Z,70.84
2019-03-10T02:52:19.551Z,70.05
2019-03-10T02:53:19.535Z,70.22
2019-03-10T02:54:19.513Z,70.57
2019-03-10T02:55:19.532Z,70.74
2019-03-10T02:56:19.515Z,70.57
2019-03-10T02:57:19.497Z,70.95
2019-03-10T02:58:19.479Z,70.57
2019-03-10T02:59:19.491Z,70.74
2019-03-10T03:00:19.493Z,70.53
2019-03-10T03:01:19.452Z,70.43
2019-03-10T03:02:19.474Z,70.53
2019-03-10T03:03:19.433Z,70.32
2019-03-10T03:04:19.411Z,70.43
2019-03-10T03:05:19.422Z,70.47
2019-03-10T03:06:19.390Z,70.53
2019-03-10T03:07:19.372Z,70.84
2019-03-10T03:08:19.370Z,70.74
2019-03-10T03:09:19.376Z,70.36
2019-03-10T03:10:19.380Z,70.43
2019-03-10T03:11:19.330Z,70.43
2019-03-10T03:12:19.318Z,70.43
2019-03-10T03:13:19.329Z,70.74
2019-03-10T03:14:19.348Z,70.43
2019-03-10T03:15:19.297Z,70.64
2019-03-10T03:16:19.289Z,70.22
2019-03-10T03:17:19.262Z,70.64
2019-03-10T03:18:19.269Z,70.36
2019-03-10T03:19:19.240Z,70.43
2019-03-10T03:20:19.242Z,70.57
2019-03-10T03:21:19.241Z,70.87
2019-03-10T03:22:19.232Z,70.98
2019-03-10T03:23:19.205Z,71.08
2019-03-10T03:24:19.184Z,70.98
2019-03-10T03:25:19.188Z,71.19
2019-03-10T03:26:19.183Z,70.57
2019-03-10T03:27:19.150Z,70.77
2019-03-10T03:28:19.146Z,70.77
2019-03-10T03:29:19.129Z,70.84
2019-03-10T03:30:19.123Z,70.47
2019-03-10T03:31:19.125Z,70.87
2019-03-10T03:32:19.098Z,70.36
2019-03-10T03:33:19.111Z,70.77
2019-03-10T03:34:19.117Z,70.98
2019-03-10T03:35:19.089Z,70.47
2019-03-10T03:36:19.087Z,70.53
2019-03-10T03:37:19.059Z,70.53
2019-03-10T03:38:19.031Z,70.26
2019-03-10T03:39:19.123Z,70.53
2019-03-10T03:40:19.024Z,70.53
2019-03-10T03:41:19.028Z,70.77
2019-03-10T03:42:18.996Z,70.95
2019-03-10T03:43:18.989Z,70.36
2019-03-10T03:44:18.957Z,70.74
2019-03-10T03:45:18.950Z,70.84
2019-03-10T03:46:18.980Z,70.67
2019-03-10T03:47:18.935Z,70.84
2019-03-10T03:48:18.922Z,71.05
2019-03-10T03:49:18.915Z,70.95
2019-03-10T03:50:18.901Z,71.05
2019-03-10T03:51:18.913Z,70.95
2019-03-10T03:52:18.871Z,71.19
2019-03-10T03:53:18.868Z,71.05
2019-03-10T03:54:18.847Z,70.98
2019-03-10T03:55:18.834Z,71.08
2019-03-10T03:56:18.859Z,71.47
2019-03-10T03:57:18.830Z,71.39
2019-03-10T03:58:18.810Z,71.26
2019-03-10T03:59:18.798Z,71.29
2019-03-10T04:00:18.782Z,71.29
2019-03-10T04:01:18.794Z,71.81
2019-03-10T04:02:18.778Z,71.81
2019-03-10T04:03:18.763Z,71.57
2019-03-10T04:04:18.742Z,71.67
2019-03-10T04:05:18.753Z,71.78
2019-03-10T04:06:18.747Z,71.98
2019-03-10T04:07:18.709Z,72.50
2019-03-10T04:08:18.700Z,72.43
2019-03-10T04:09:18.722Z,72.19
2019-03-10T04:10:18.674Z,72.29
2019-03-10T04:11:18.678Z,72.50
2019-03-10T04:12:18.661Z,72.33
2019-03-10T04:13:18.634Z,72.85
2019-03-10T04:14:18.633Z,72.53
2019-03-10T04:15:18.614Z,72.43
2019-03-10T04:16:18.656Z,72.33
2019-03-10T04:17:18.604Z,72.43
2019-03-10T04:18:18.587Z,72.60
2019-03-10T04:19:18.570Z,73.12
2019-03-10T04:20:18.565Z,73.33
2019-03-10T04:21:18.555Z,73.15
2019-03-10T04:22:18.534Z,73.33
2019-03-10T04:23:18.534Z,73.54
2019-03-10T04:24:18.550Z,73.25
2019-03-10T04:25:18.513Z,73.54
2019-03-10T04:26:18.513Z,73.22
2019-03-10T04:27:18.488Z,73.54
2019-03-10T04:28:18.477Z,72.64
2019-03-10T04:29:18.486Z,73.25
2019-03-10T04:30:18.454Z,73.67
2019-03-10T04:31:18.462Z,73.64
2019-03-10T04:32:18.436Z,73.64
2019-03-10T04:33:18.410Z,73.43
2019-03-10T04:34:18.413Z,73.64
2019-03-10T04:35:18.400Z,73.64
2019-03-10T04:36:18.450Z,73.74
2019-03-10T04:37:18.373Z,73.54
2019-03-10T04:38:18.386Z,73.54
2019-03-10T04:39:18.340Z,73.54
2019-03-10T04:40:18.339Z,73.77
2019-03-10T04:41:18.344Z,73.64
2019-03-10T04:42:18.318Z,73.64
2019-03-10T04:43:18.312Z,73.94
2019-03-10T04:44:18.291Z,74.15
2019-03-10T04:45:18.282Z,73.74
2019-03-10T04:46:18.280Z,73.74
2019-03-10T04:47:18.274Z,73.64
2019-03-10T04:48:18.250Z,73.64
2019-03-10T04:49:18.243Z,73.54
2019-03-10T04:50:18.228Z,74.15
2019-03-10T04:51:18.253Z,73.84
2019-03-10T04:52:18.208Z,73.64
2019-03-10T04:53:18.207Z,73.39
2019-03-10T04:54:18.185Z,73.39
2019-03-10T04:55:18.178Z,73.29
2019-03-10T04:56:18.162Z,73.60
2019-03-10T04:57:18.166Z,73.71
2019-03-10T04:58:18.140Z,73.71
2019-03-10T04:59:18.133Z,73.50
2019-03-10T05:00:18.121Z,73.60
2019-03-10T05:01:18.119Z,73.39
2019-03-10T05:02:18.108Z,73.29
2019-03-10T05:03:18.084Z,73.60
2019-03-10T05:04:18.098Z,73.71
2019-03-10T05:05:18.055Z,73.91
2019-03-10T05:06:18.056Z,73.50
2019-03-10T05:07:18.062Z,73.50
2019-03-10T05:08:18.073Z,73.60
2019-03-10T05:09:18.026Z,73.71
2019-03-10T05:10:18.018Z,74.12
2019-03-10T05:11:18.005Z,73.50
2019-03-10T05:12:18.009Z,73.60
2019-03-10T05:13:17.962Z,74.02
2019-03-10T05:14:17.955Z,74.02
2019-03-10T05:15:17.952Z,74.12
2019-03-10T05:16:17.947Z,73.81
2019-03-10T05:17:17.945Z,74.02
2019-03-10T05:18:17.921Z,73.71
2019-03-10T05:19:17.900Z,74.02
2019-03-10T05:20:17.901Z,73.91
2019-03-10T05:21:17.877Z,73.71
2019-03-10T05:22:17.887Z,73.91
2019-03-10T05:23:17.857Z,73.67
2019-03-10T05:24:17.862Z,73.71
2019-03-10T05:25:17.837Z,73.98
2019-03-10T05:26:17.857Z,74.02
2019-03-10T05:27:17.833Z,73.71
2019-03-10T05:28:17.814Z,73.91
2019-03-10T05:29:17.799Z,74.02
2019-03-10T05:30:17.797Z,73.67
2019-03-10T05:31:17.762Z,74.19
2019-03-10T05:32:17.778Z,73.81
2019-03-10T05:33:17.754Z,73.88
2019-03-10T05:34:17.736Z,74.12
2019-03-10T05:35:17.777Z,74.33
2019-03-10T05:36:17.764Z,74.22
2019-03-10T05:37:17.718Z,74.53
2019-03-10T05:38:17.700Z,74.43
2019-03-10T05:39:17.688Z,74.53
2019-03-10T05:40:17.673Z,74.43
2019-03-10T05:41:17.682Z,74.33
2019-03-10T05:42:17.671Z,74.53
2019-03-10T05:43:17.651Z,74.43
2019-03-10T05:44:17.622Z,74.53
2019-03-10T05:45:17.622Z,74.43
2019-03-10T05:46:17.618Z,74.33
2019-03-10T05:47:17.612Z,74.33
2019-03-10T05:48:17.582Z,74.33
2019-03-10T05:49:17.575Z,74.33
2019-03-10T05:50:17.551Z,74.50
2019-03-10T05:51:17.552Z,74.40
2019-03-10T05:52:17.528Z,74.43
2019-03-10T05:53:17.545Z,74.22
2019-03-10T05:54:17.514Z,74.33
2019-03-10T05:55:17.506Z,74.43
2019-03-10T05:56:17.492Z,74.40
2019-03-10T05:57:17.475Z,74.40
2019-03-10T05:58:17.488Z,74.50
2019-03-10T05:59:17.459Z,74.12
2019-03-10T06:00:17.452Z,74.08
2019-03-10T06:01:17.433Z,74.29
2019-03-10T06:02:17.444Z,74.08
2019-03-10T06:03:17.434Z,74.19
2019-03-10T06:04:17.409Z,74.08
2019-03-10T06:05:17.394Z,74.29
2019-03-10T06:06:17.389Z,74.08
2019-03-10T06:07:17.366Z,74.22
2019-03-10T06:08:17.372Z,74.29
2019-03-10T06:09:17.348Z,74.29
2019-03-10T06:10:17.342Z,74.50
2019-03-10T06:11:17.336Z,74.50
2019-03-10T06:12:17.321Z,74.50
2019-03-10T06:13:17.324Z,74.50
2019-03-10T06:14:17.293Z,74.50
2019-03-10T06:15:17.293Z,74.40
2019-03-10T06:16:17.282Z,74.40
2019-03-10T06:17:17.265Z,74.40
2019-03-10T06:18:17.277Z,74.50
2019-03-10T06:19:17.254Z,74.29
2019-03-10T06:20:17.227Z,74.43
2019-03-10T06:21:17.232Z,74.19
2019-03-10T06:22:17.213Z,74.33
2019-03-10T06:23:17.225Z,74.43
2019-03-10T06:24:17.185Z,74.40
2019-03-10T06:25:17.174Z,74.19
2019-03-10T06:26:17.160Z,74.40
2019-03-10T06:27:17.151Z,74.53
2019-03-10T06:28:17.167Z,74.29
2019-03-10T06:29:17.129Z,74.33
2019-03-10T06:30:17.129Z,74.29
2019-03-10T06:31:17.104Z,74.50
2019-03-10T06:32:17.094Z,74.40
2019-03-10T06:33:17.085Z,74.29
2019-03-10T06:34:17.102Z,74.43
2019-03-10T06:35:17.062Z,74.50
2019-03-10T06:36:17.073Z,74.50
2019-03-10T06:37:17.041Z,74.43
2019-03-10T06:38:17.039Z,74.60
2019-03-10T06:39:17.047Z,74.29
2019-03-10T06:40:17.034Z,74.40
2019-03-10T06:41:17.012Z,74.50
2019-03-10T06:42:16.989Z,74.40
2019-03-10T06:43:16.969Z,73.88
2019-03-10T06:44:16.983Z,74.40
2019-03-10T06:45:16.980Z,74.19
2019-03-10T06:46:16.949Z,74.08
2019-03-10T06:47:16.929Z,73.77
2019-03-10T06:48:16.911Z,73.98
2019-03-10T06:49:16.934Z,73.47
2019-03-10T06:50:16.899Z,73.43
2019-03-10T06:51:16.896Z,73.43
2019-03-10T06:52:16.878Z,73.43
2019-03-10T06:53:16.869Z,73.22
2019-03-10T06:54:16.858Z,72.61
2019-03-10T06:55:16.834Z,73.43
2019-03-10T06:56:16.834Z,73.12
2019-03-10T06:57:16.826Z,73.12
2019-03-10T06:58:16.811Z,72.40
2019-03-10T06:59:16.827Z,72.61
2019-03-10T07:00:17.657Z,72.40
2019-03-10T07:01:16.788Z,72.09
2019-03-10T07:02:16.773Z,71.95
2019-03-10T07:03:16.753Z,72.26
2019-03-10T07:04:16.777Z,72.36
2019-03-10T07:05:16.734Z,72.26
2019-03-10T07:06:16.737Z,71.64
2019-03-10T07:07:16.708Z,71.54
2019-03-10T07:08:16.707Z,71.54
2019-03-10T07:09:16.698Z,71.85
2019-03-10T07:10:16.698Z,71.02
2019-03-10T07:11:16.661Z,71.81
2019-03-10T07:12:16.662Z,71.09
2019-03-10T07:13:16.667Z,71.41
2019-03-10T07:14:16.636Z,70.89
2019-03-10T07:15:16.651Z,70.99
2019-03-10T07:16:16.620Z,71.09
2019-03-10T07:17:16.594Z,70.89
2019-03-10T07:18:16.588Z,70.68
2019-03-10T07:19:16.581Z,70.65
2019-03-10T07:20:16.591Z,70.68
2019-03-10T07:21:16.556Z,70.99
2019-03-10T07:22:16.548Z,70.68
2019-03-10T07:23:16.534Z,70.27
2019-03-10T07:24:16.537Z,70.34
2019-03-10T07:25:16.529Z,70.13
2019-03-10T07:26:16.496Z,70.23
2019-03-10T07:27:16.495Z,69.93
2019-03-10T07:28:16.477Z,70.23
2019-03-10T07:29:16.474Z,70.13
2019-03-10T07:30:16.488Z,70.13
2019-03-10T07:31:16.455Z,69.51
2019-03-10T07:32:16.430Z,69.51
2019-03-10T07:33:16.423Z,70.03
2019-03-10T07:34:16.414Z,69.72
2019-03-10T07:35:16.427Z,69.82
2019-03-10T07:36:16.394Z,70.03
2019-03-10T07:37:16.488Z,69.62
2019-03-10T07:38:16.371Z,69.82
2019-03-10T07:39:16.394Z,69.93
2019-03-10T07:40:16.383Z,69.82
2019-03-10T07:41:16.329Z,69.65
2019-03-10T07:42:16.323Z,69.72
2019-03-10T07:43:16.317Z,69.72
2019-03-10T07:44:16.321Z,69.62
2019-03-10T07:45:16.312Z,69.62
2019-03-10T07:46:16.283Z,69.41
2019-03-10T07:47:16.279Z,69.31
2019-03-10T07:48:16.259Z,69.62
2019-03-10T07:49:18.026Z,69.69
2019-03-10T07:50:16.269Z,69.82
2019-03-10T07:51:16.235Z,69.31
2019-03-10T07:52:20.125Z,69.20
2019-03-10T07:53:16.211Z,69.31
2019-03-10T07:54:16.191Z,69.17
2019-03-10T07:55:16.175Z,69.38
2019-03-10T07:56:16.193Z,69.27
2019-03-10T07:57:16.154Z,69.27
2019-03-10T07:58:16.152Z,69.17
2019-03-10T07:59:16.145Z,68.86
2019-03-10T08:00:16.131Z,69.17
2019-03-10T08:01:16.126Z,69.17
2019-03-10T08:02:16.099Z,69.07
2019-03-10T08:03:16.097Z,69.07
2019-03-10T08:04:16.117Z,68.96
2019-03-10T08:05:16.074Z,68.96
2019-03-10T08:06:16.084Z,68.96
2019-03-10T08:07:16.086Z,71.61
2019-03-10T08:08:16.047Z,70.58
2019-03-10T08:09:16.029Z,72.64
2019-03-10T08:10:16.010Z,71.00
2019-03-10T08:11:16.027Z,70.04
2019-03-10T08:12:15.991Z,70.45
2019-03-10T08:13:15.979Z,68.15
2019-03-10T08:14:15.963Z,69.18
2019-03-10T08:15:15.951Z,68.87
2019-03-10T08:16:15.969Z,69.04
2019-03-10T08:17:15.937Z,67.47
2019-03-10T08:18:15.943Z,66.44
2019-03-10T08:19:15.918Z,66.34
2019-03-10T08:20:15.909Z,65.48
2019-03-10T08:21:15.965Z,64.56
2019-03-10T08:22:15.889Z,65.48
2019-03-10T08:23:15.878Z,65.28
2019-03-10T08:24:15.857Z,65.17
2019-03-10T08:25:15.856Z,65.80
2019-03-10T08:26:15.864Z,65.08
2019-03-10T08:27:15.832Z,64.87
2019-03-10T08:28:15.831Z,64.46
2019-03-10T08:29:15.809Z,63.02
2019-03-10T08:30:15.792Z,63.94
2019-03-10T08:31:15.810Z,64.04
2019-03-10T08:32:15.764Z,64.22
2019-03-10T08:33:15.768Z,63.12
2019-03-10T08:34:15.750Z,63.43
2019-03-10T08:35:15.742Z,63.09
2019-03-10T08:36:15.747Z,63.09
2019-03-10T08:37:15.710Z,62.88
2019-03-10T08:38:15.712Z,62.68
2019-03-10T08:39:15.686Z,62.68
2019-03-10T08:40:15.688Z,63.60
2019-03-10T08:41:15.678Z,63.09
2019-03-10T08:42:20.282Z,63.20
2019-03-10T08:43:16.648Z,63.20
2019-03-10T08:44:15.641Z,62.37
2019-03-10T08:45:15.624Z,62.37
2019-03-10T08:46:15.619Z,62.48
2019-03-10T08:47:15.620Z,62.68
2019-03-10T08:48:15.589Z,62.78
2019-03-10T08:49:15.669Z,62.85
2019-03-10T08:50:15.665Z,62.27
2019-03-10T08:51:15.562Z,62.27
2019-03-10T08:52:15.595Z,62.78
2019-03-10T08:53:15.548Z,62.37
2019-03-10T08:54:15.547Z,62.27
2019-03-10T08:55:15.520Z,62.27
2019-03-10T08:56:15.511Z,62.14
2019-03-10T08:57:15.520Z,62.65
2019-03-10T08:58:15.491Z,61.62
2019-03-10T08:59:15.468Z,61.83
2019-03-10T09:00:15.460Z,61.93
2019-03-10T09:01:15.452Z,61.62
2019-03-10T09:02:15.456Z,61.11
2019-03-10T09:03:15.420Z,61.00
2019-03-10T09:04:15.426Z,61.32
2019-03-10T09:05:15.409Z,60.67
2019-03-10T09:06:15.418Z,60.05
2019-03-10T09:07:15.427Z,60.16
2019-03-10T09:08:15.367Z,60.67
2019-03-10T09:09:15.362Z,60.67
2019-03-10T09:10:15.360Z,60.47
2019-03-10T09:11:15.361Z,60.57
2019-03-10T09:12:15.361Z,60.16
2019-03-10T09:13:15.354Z,60.26
2019-03-10T09:14:15.314Z,60.26
2019-03-10T09:15:15.299Z,60.57
2019-03-10T09:16:15.301Z,59.23
2019-03-10T09:17:15.314Z,59.75
2019-03-10T09:18:15.254Z,59.41
2019-03-10T09:19:15.318Z,59.95
2019-03-10T09:20:15.251Z,58.83
2019-03-10T09:21:15.244Z,59.00
2019-03-10T09:22:15.245Z,58.69
2019-03-10T09:23:15.233Z,59.20
2019-03-10T09:24:15.200Z,59.00
2019-03-10T09:25:15.182Z,59.11
2019-03-10T09:26:15.182Z,59.00
2019-03-10T09:27:15.197Z,59.08
2019-03-10T09:28:15.169Z,59.08
2019-03-10T09:29:15.134Z,59.18
2019-03-10T09:30:15.141Z,59.08
2019-03-10T09:31:15.124Z,58.15
2019-03-10T09:32:15.116Z,57.33
2019-03-10T09:33:15.128Z,57.43
2019-03-10T09:34:15.090Z,57.64
2019-03-10T09:35:15.070Z,57.43
2019-03-10T09:36:15.054Z,57.43
2019-03-10T09:37:15.056Z,57.75
2019-03-10T09:38:15.061Z,57.13
2019-03-10T09:39:15.036Z,57.33
2019-03-10T09:40:15.019Z,57.03
2019-03-10T09:41:15.008Z,57.13
2019-03-10T09:42:14.988Z,57.10
2019-03-10T09:43:15.021Z,56.07
2019-03-10T09:44:14.984Z,55.87
2019-03-10T09:45:14.966Z,56.26
2019-03-10T09:46:14.976Z,55.98
2019-03-10T09:47:14.951Z,55.18
2019-03-10T09:48:14.984Z,54.97
2019-03-10T09:49:14.943Z,56.00
2019-03-10T09:50:14.903Z,54.57
2019-03-10T09:51:14.896Z,54.25
2019-03-10T09:52:14.908Z,54.87
2019-03-10T09:53:14.894Z,54.46
2019-03-10T09:54:14.892Z,54.85
2019-03-10T09:55:14.854Z,54.33
2019-03-10T09:56:14.840Z,54.85
2019-03-10T09:57:14.837Z,53.82
2019-03-10T09:58:14.833Z,54.00
2019-03-10T09:59:14.800Z,54.31
2019-03-10T10:00:14.796Z,53.80
2019-03-10T10:01:14.785Z,54.10
2019-03-10T10:02:14.768Z,53.97
2019-03-10T10:03:14.790Z,54.61
2019-03-10T10:04:14.748Z,53.49
2019-03-10T10:05:14.737Z,53.49
2019-03-10T10:06:14.733Z,53.90
2019-03-10T10:07:14.722Z,53.97
2019-03-10T10:08:14.729Z,54.31
2019-03-10T10:09:14.739Z,54.69
2019-03-10T10:10:14.704Z,54.59
2019-03-10T10:11:14.683Z,54.59
2019-03-10T10:12:14.677Z,54.92
2019-03-10T10:13:14.657Z,55.74
2019-03-10T10:14:14.667Z,56.07
2019-03-10T10:15:14.625Z,56.62
2019-03-10T10:16:14.618Z,56.00
2019-03-10T10:17:14.604Z,55.77
2019-03-10T10:18:14.594Z,56.07
2019-03-10T10:19:14.593Z,56.07
2019-03-10T10:20:14.589Z,56.07
2019-03-10T10:21:14.570Z,56.20
2019-03-10T10:22:14.563Z,57.23
2019-03-10T10:23:14.538Z,57.15
2019-03-10T10:24:14.563Z,57.05
2019-03-10T10:25:14.526Z,57.46
2019-03-10T10:26:14.507Z,57.87
2019-03-10T10:27:14.491Z,57.79
2019-03-10T10:28:14.484Z,59.13
2019-03-10T10:29:14.499Z,58.62
2019-03-10T10:30:14.470Z,59.34
2019-03-10T10:31:14.464Z,59.23
2019-03-10T10:32:14.428Z,59.16
2019-03-10T10:33:14.423Z,59.06
2019-03-10T10:34:14.445Z,58.95
2019-03-10T10:35:14.401Z,59.36
2019-03-10T10:36:14.397Z,59.47
2019-03-10T10:37:14.384Z,59.47
2019-03-10T10:38:18.548Z,59.26
2019-03-10T10:39:14.381Z,59.16
2019-03-10T10:40:14.346Z,59.67
2019-03-10T10:41:14.338Z,59.47
2019-03-10T10:42:14.333Z,59.47
2019-03-10T10:43:14.309Z,59.77
2019-03-10T10:44:14.335Z,59.98
2019-03-10T10:45:14.294Z,59.77
2019-03-10T10:46:14.289Z,59.47
2019-03-10T10:47:14.282Z,60.08
2019-03-10T10:48:14.274Z,60.83
2019-03-10T10:49:14.286Z,61.04
2019-03-10T10:50:14.250Z,60.52
2019-03-10T10:51:14.249Z,60.93
2019-03-10T10:52:14.241Z,60.73
2019-03-10T10:53:14.469Z,60.01
2019-03-10T10:54:14.230Z,60.01
2019-03-10T10:55:14.181Z,60.83
2019-03-10T10:56:14.184Z,61.11
2019-03-10T10:57:14.167Z,60.73
2019-03-10T10:58:14.164Z,60.80
2019-03-10T10:59:14.178Z,60.91
2019-03-10T11:00:14.126Z,60.93
2019-03-10T11:01:14.105Z,60.52
2019-03-10T11:02:14.108Z,60.08
2019-03-10T11:03:14.109Z,60.29
2019-03-10T11:04:14.103Z,61.00
2019-03-10T11:05:14.075Z,60.91
2019-03-10T11:06:14.063Z,60.29
2019-03-10T11:07:14.050Z,60.29
2019-03-10T11:08:14.031Z,60.29
2019-03-10T11:09:14.067Z,60.29
2019-03-10T11:10:14.019Z,60.60
2019-03-10T11:11:14.035Z,60.39
2019-03-10T11:12:14.003Z,61.32
2019-03-10T11:13:13.980Z,61.11
2019-03-10T11:14:14.004Z,61.00
2019-03-10T11:15:13.970Z,61.72
2019-03-10T11:16:13.960Z,62.34
2019-03-10T11:17:13.962Z,62.24
2019-03-10T11:18:13.922Z,62.55
2019-03-10T11:19:13.920Z,62.96
2019-03-10T11:20:13.937Z,63.27
2019-03-10T11:21:13.947Z,64.19
2019-03-10T11:22:13.875Z,64.60
2019-03-10T11:23:13.874Z,63.37
2019-03-10T11:24:13.874Z,63.37
2019-03-10T11:25:13.855Z,64.09
2019-03-10T11:26:13.851Z,64.73
2019-03-10T11:27:13.844Z,64.63
2019-03-10T11:28:13.818Z,65.25
2019-03-10T11:29:13.826Z,65.86
2019-03-10T11:30:13.789Z,65.66
2019-03-10T11:31:14.075Z,65.97
2019-03-10T11:32:13.787Z,64.84
2019-03-10T11:33:13.765Z,65.05
2019-03-10T11:34:13.790Z,62.60
2019-03-10T11:35:13.748Z,63.40
2019-03-10T11:36:13.734Z,64.04
2019-03-10T11:37:13.715Z,64.36
2019-03-10T11:38:13.714Z,64.15
2019-03-10T11:39:13.724Z,64.87
2019-03-10T11:40:13.685Z,64.76
2019-03-10T11:41:13.690Z,64.66
2019-03-10T11:42:13.661Z,65.17
2019-03-10T11:43:13.650Z,65.72
2019-03-10T11:44:13.670Z,66.24
2019-03-10T11:45:13.634Z,65.83
2019-03-10T11:46:13.635Z,65.80
2019-03-10T11:47:13.620Z,65.52
2019-03-10T11:48:13.597Z,66.20
2019-03-10T11:49:13.607Z,66.20
2019-03-10T11:50:15.162Z,67.33
2019-03-10T11:51:13.562Z,67.33
2019-03-10T11:52:13.558Z,67.44
2019-03-10T11:53:19.255Z,67.13
2019-03-10T11:54:14.562Z,66.31
2019-03-10T11:55:13.561Z,66.41
2019-03-10T11:56:13.502Z,66.93
2019-03-10T11:57:13.493Z,66.51
2019-03-10T11:58:13.484Z,66.10
2019-03-10T11:59:13.474Z,66.93
2019-03-10T12:00:13.488Z,67.03
2019-03-10T12:01:13.450Z,66.82
2019-03-10T12:02:16.459Z,67.03
2019-03-10T12:03:13.441Z,67.51
2019-03-10T12:04:13.433Z,68.16
2019-03-10T12:05:13.500Z,68.16
2019-03-10T12:06:13.396Z,67.85
2019-03-10T12:07:13.384Z,67.95
2019-03-10T12:08:13.362Z,68.05
2019-03-10T12:09:13.378Z,67.33
2019-03-10T12:10:13.385Z,67.33
2019-03-10T12:11:13.338Z,64.87
2019-03-10T12:12:13.322Z,64.66
2019-03-10T12:13:13.328Z,63.74
2019-03-10T12:14:13.307Z,64.79
2019-03-10T12:15:13.317Z,64.39
2019-03-10T12:16:13.294Z,63.25
2019-03-10T12:17:13.264Z,64.07
2019-03-10T12:18:13.265Z,64.48
2019-03-10T12:19:13.263Z,66.00
2019-03-10T12:20:13.292Z,64.76
2019-03-10T12:21:13.229Z,64.15
2019-03-10T12:22:13.242Z,62.71
2019-03-10T12:23:13.205Z,62.19
2019-03-10T12:24:13.209Z,61.79
2019-03-10T12:25:13.179Z,62.19
2019-03-10T12:26:13.199Z,62.19
2019-03-10T12:27:13.166Z,62.30
2019-03-10T12:28:13.159Z,63.12
2019-03-10T12:29:13.145Z,63.53
2019-03-10T12:30:13.121Z,62.37
2019-03-10T12:31:13.143Z,62.51
2019-03-10T12:32:13.114Z,60.83
2019-03-10T12:33:13.115Z,62.51
2019-03-10T12:34:13.081Z,62.19
2019-03-10T12:35:13.074Z,62.71
2019-03-10T12:36:13.092Z,62.92
2019-03-10T12:37:13.047Z,62.81
2019-03-10T12:38:13.055Z,62.51
2019-03-10T12:39:13.046Z,61.88
2019-03-10T12:40:13.017Z,62.40
2019-03-10T12:41:13.040Z,62.51
2019-03-10T12:42:13.042Z,62.81
2019-03-10T12:43:13.009Z,62.60
2019-03-10T12:44:12.989Z,61.68
2019-03-10T12:45:12.967Z,61.99
2019-03-10T12:46:12.955Z,61.79
2019-03-10T12:47:12.964Z,61.27
2019-03-10T12:48:12.926Z,61.07
2019-03-10T12:49:12.920Z,62.30
2019-03-10T12:50:12.918Z,61.88
2019-03-10T12:51:12.897Z,61.99
2019-03-10T12:52:12.912Z,62.88